sensor_id;sensor_type;location;lat;lon;timestamp;pressure;altitude;pressure_sealevel;temperature;humidity
32789;BME280;19141;48.980;8.410;2023-05-12T04:22:33;99952.00;;;11.43;100.00
32789;BME280;19141;48.980;8.410;2023-05-12T04:24:58;99954.50;;;11.45;100.00
32789;BME280;19141;48.980;8.410;2023-05-12T04:27:24;99951.81;;;11.45;100.00
32789;BME280;19141;48.980;8.410;2023-05-12T04:29:49;99948.97;;;11.46;100.00
32789;BME280;19141;48.980;8.410;2023-05-12T04:32:15;99951.63;;;11.46;100.00
32789;BME280;19141;48.980;8.410;2023-05-12T04:34:41;99953.94;;;11.49;100.00
32789;BME280;19141;48.980;8.410;2023-05-12T04:37:06;99951.47;;;11.48;100.00
32789;BME280;19141;48.980;8.410;2023-05-12T04:39:32;99952.72;;;11.52;100.00
32789;BME280;19141;48.980;8.410;2023-05-12T04:42:01;99954.03;;;11.56;100.00
32789;BME280;19141;48.980;8.410;2023-05-12T04:44:27;99956.50;;;11.57;100.00
32789;BME280;19141;48.980;8.410;2023-05-12T04:46:53;99960.81;;;11.58;100.00
32789;BME280;19141;48.980;8.410;2023-05-12T04:49:21;99957.13;;;11.59;100.00
32789;BME280;19141;48.980;8.410;2023-05-12T04:51:47;99956.56;;;11.64;100.00
32789;BME280;19141;48.980;8.410;2023-05-12T04:54:12;99958.63;;;11.62;100.00
32789;BME280;19141;48.980;8.410;2023-05-12T04:56:38;99962.00;;;11.71;100.00
32789;BME280;19141;48.980;8.410;2023-05-12T04:59:05;99966.31;;;11.72;100.00
32789;BME280;19141;48.980;8.410;2023-05-12T05:01:31;99959.06;;;11.65;100.00
32789;BME280;19141;48.980;8.410;2023-05-12T05:03:56;99968.63;;;11.75;100.00
32789;BME280;19141;48.980;8.410;2023-05-12T05:06:21;99971.09;;;11.76;100.00
32789;BME280;19141;48.980;8.410;2023-05-12T05:08:48;99973.56;;;11.78;100.00
32789;BME280;19141;48.980;8.410;2023-05-12T05:11:14;99973.38;;;11.79;100.00
32789;BME280;19141;48.980;8.410;2023-05-12T05:13:40;99971.28;;;11.75;100.00
32789;BME280;19141;48.980;8.410;2023-05-12T05:16:05;99974.88;;;11.82;100.00
32789;BME280;19141;48.980;8.410;2023-05-12T05:18:31;99969.97;;;11.85;100.00
32789;BME280;19141;48.980;8.410;2023-05-12T05:20:57;99970.81;;;11.86;100.00
32789;BME280;19141;48.980;8.410;2023-05-12T05:23:22;99984.81;;;11.88;100.00
32789;BME280;19141;48.980;8.410;2023-05-12T05:25:48;99979.91;;;11.91;100.00
32789;BME280;19141;48.980;8.410;2023-05-12T05:28:13;99983.78;;;11.89;100.00
32789;BME280;19141;48.980;8.410;2023-05-12T05:30:40;99974.00;;;11.96;100.00
32789;BME280;19141;48.980;8.410;2023-05-12T05:33:05;99978.34;;;11.97;100.00
32789;BME280;19141;48.980;8.410;2023-05-12T05:35:31;99977.13;;;12.00;100.00
32789;BME280;19141;48.980;8.410;2023-05-12T05:37:57;99980.44;;;12.02;100.00
32789;BME280;19141;48.980;8.410;2023-05-12T05:40:24;99980.88;;;12.05;100.00
32789;BME280;19141;48.980;8.410;2023-05-12T05:42:50;99986.69;;;12.09;100.00
32789;BME280;19141;48.980;8.410;2023-05-12T05:45:15;99984.22;;;12.07;100.00
32789;BME280;19141;48.980;8.410;2023-05-12T05:47:40;99982.78;;;12.11;100.00
32789;BME280;19141;48.980;8.410;2023-05-12T05:50:07;99983.63;;;12.12;100.00
32789;BME280;19141;48.980;8.410;2023-05-12T05:52:35;99987.13;;;12.12;100.00
32789;BME280;19141;48.980;8.410;2023-05-12T05:55:01;99993.53;;;12.18;100.00
32789;BME280;19141;48.980;8.410;2023-05-12T05:57:28;99988.78;;;12.13;100.00
32789;BME280;19141;48.980;8.410;2023-05-12T05:59:55;99992.16;;;12.22;100.00
32789;BME280;19141;48.980;8.410;2023-05-12T06:02:20;99997.94;;;12.26;100.00
32789;BME280;19141;48.980;8.410;2023-05-12T06:04:48;99998.84;;;12.33;100.00
32789;BME280;19141;48.980;8.410;2023-05-12T06:07:14;99999.69;;;12.33;100.00
32789;BME280;19141;48.980;8.410;2023-05-12T06:09:41;99992.16;;;12.22;100.00
32789;BME280;19141;48.980;8.410;2023-05-12T06:12:06;100004.34;;;12.31;100.00
32789;BME280;19141;48.980;8.410;2023-05-12T06:14:32;100003.66;;;12.44;100.00
32789;BME280;19141;48.980;8.410;2023-05-12T06:16:57;100006.84;;;12.54;100.00
32789;BME280;19141;48.980;8.410;2023-05-12T06:19:23;100005.38;;;12.52;100.00
32789;BME280;19141;48.980;8.410;2023-05-12T06:21:48;100007.28;;;12.58;100.00
32789;BME280;19141;48.980;8.410;2023-05-12T06:24:13;100011.03;;;12.63;100.00
32789;BME280;19141;48.980;8.410;2023-05-12T06:26:40;100010.28;;;12.69;100.00
32789;BME280;19141;48.980;8.410;2023-05-12T06:29:06;100019.38;;;12.75;100.00
32789;BME280;19141;48.980;8.410;2023-05-12T06:31:32;100017.97;;;12.79;100.00
32789;BME280;19141;48.980;8.410;2023-05-12T06:33:57;100010.19;;;12.84;100.00
32789;BME280;19141;48.980;8.410;2023-05-12T06:36:23;100008.78;;;12.88;100.00
32789;BME280;19141;48.980;8.410;2023-05-12T06:38:49;100007.19;;;12.94;100.00
32789;BME280;19141;48.980;8.410;2023-05-12T06:41:15;100013.84;;;13.04;100.00
32789;BME280;19141;48.980;8.410;2023-05-12T06:43:41;100011.03;;;13.13;100.00
32789;BME280;19141;48.980;8.410;2023-05-12T06:46:07;100021.72;;;13.13;100.00
32789;BME280;19141;48.980;8.410;2023-05-12T06:48:33;100025.13;;;13.28;100.00
32789;BME280;19141;48.980;8.410;2023-05-12T06:50:58;100022.66;;;13.26;100.00
32789;BME280;19141;48.980;8.410;2023-05-12T06:53:27;100025.59;;;13.32;100.00
32789;BME280;19141;48.980;8.410;2023-05-12T06:55:53;100030.72;;;13.33;100.00
32789;BME280;19141;48.980;8.410;2023-05-12T06:58:19;100019.75;;;13.21;100.00
32789;BME280;19141;48.980;8.410;2023-05-12T07:00:46;100023.97;;;13.37;100.00
32789;BME280;19141;48.980;8.410;2023-05-12T07:03:12;100020.50;;;13.43;100.00
32789;BME280;19141;48.980;8.410;2023-05-12T07:05:37;100031.06;;;13.51;100.00
32789;BME280;19141;48.980;8.410;2023-05-12T07:08:03;100030.06;;;13.59;100.00
32789;BME280;19141;48.980;8.410;2023-05-12T07:10:28;100022.81;;;13.53;100.00
32789;BME280;19141;48.980;8.410;2023-05-12T07:12:54;100027.19;;;13.61;100.00
32789;BME280;19141;48.980;8.410;2023-05-12T07:15:19;100025.19;;;13.69;100.00
32789;BME280;19141;48.980;8.410;2023-05-12T07:17:45;100024.97;;;13.71;100.00
32789;BME280;19141;48.980;8.410;2023-05-12T07:20:10;100026.03;;;13.76;100.00
32789;BME280;19141;48.980;8.410;2023-05-12T07:22:36;100029.75;;;13.89;100.00
32789;BME280;19141;48.980;8.410;2023-05-12T07:25:01;100033.94;;;13.98;100.00
32789;BME280;19141;48.980;8.410;2023-05-12T07:27:27;100028.00;;;14.09;100.00
32789;BME280;19141;48.980;8.410;2023-05-12T07:29:52;100025.75;;;14.12;100.00
32789;BME280;19141;48.980;8.410;2023-05-12T07:32:18;100027.00;;;14.17;100.00
32789;BME280;19141;48.980;8.410;2023-05-12T07:34:43;100030.09;;;14.20;100.00
32789;BME280;19141;48.980;8.410;2023-05-12T07:37:09;100017.97;;;14.37;100.00
32789;BME280;19141;48.980;8.410;2023-05-12T07:39:34;100020.66;;;14.44;100.00
32789;BME280;19141;48.980;8.410;2023-05-12T07:41:59;100027.72;;;14.52;100.00
32789;BME280;19141;48.980;8.410;2023-05-12T07:44:25;100014.31;;;14.58;100.00
32789;BME280;19141;48.980;8.410;2023-05-12T07:46:50;100019.91;;;14.63;100.00
32789;BME280;19141;48.980;8.410;2023-05-12T07:49:16;100015.34;;;14.64;100.00
32789;BME280;19141;48.980;8.410;2023-05-12T07:51:41;100024.00;;;14.53;100.00
32789;BME280;19141;48.980;8.410;2023-05-12T07:54:06;100014.75;;;14.55;100.00
32789;BME280;19141;48.980;8.410;2023-05-12T07:56:32;100010.44;;;14.61;100.00
32789;BME280;19141;48.980;8.410;2023-05-12T07:58:57;100015.38;;;14.77;99.90
32789;BME280;19141;48.980;8.410;2023-05-12T08:01:23;100017.44;;;14.62;99.00
32789;BME280;19141;48.980;8.410;2023-05-12T08:03:49;100023.63;;;14.69;99.13
32789;BME280;19141;48.980;8.410;2023-05-12T08:06:17;100011.66;;;14.72;99.73
32789;BME280;19141;48.980;8.410;2023-05-12T08:08:43;100019.06;;;14.63;99.63
32789;BME280;19141;48.980;8.410;2023-05-12T08:11:08;100017.00;;;14.72;100.00
32789;BME280;19141;48.980;8.410;2023-05-12T08:13:37;100016.41;;;14.63;100.00
32789;BME280;19141;48.980;8.410;2023-05-12T08:16:03;100014.75;;;14.69;99.88
32789;BME280;19141;48.980;8.410;2023-05-12T08:18:28;100020.94;;;14.62;100.00
32789;BME280;19141;48.980;8.410;2023-05-12T08:20:53;100021.16;;;14.87;99.14
32789;BME280;19141;48.980;8.410;2023-05-12T08:23:19;100016.63;;;14.81;98.00
32789;BME280;19141;48.980;8.410;2023-05-12T08:25:44;100016.19;;;14.91;97.78
32789;BME280;19141;48.980;8.410;2023-05-12T08:28:10;100013.28;;;14.99;97.28
32789;BME280;19141;48.980;8.410;2023-05-12T08:30:37;100011.84;;;15.03;94.52
32789;BME280;19141;48.980;8.410;2023-05-12T08:33:02;100016.81;;;15.06;94.96
32789;BME280;19141;48.980;8.410;2023-05-12T08:35:28;100017.19;;;15.16;95.19
32789;BME280;19141;48.980;8.410;2023-05-12T08:37:55;100011.63;;;15.05;94.62
32789;BME280;19141;48.980;8.410;2023-05-12T08:40:22;100017.00;;;15.05;93.63
32789;BME280;19141;48.980;8.410;2023-05-12T08:43:00;100021.53;;;15.11;94.49
32789;BME280;19141;48.980;8.410;2023-05-12T08:45:30;100022.38;;;14.78;96.64
32789;BME280;19141;48.980;8.410;2023-05-12T08:47:57;100026.09;;;14.77;98.88
32789;BME280;19141;48.980;8.410;2023-05-12T08:50:23;100028.56;;;14.72;100.00
32789;BME280;19141;48.980;8.410;2023-05-12T08:52:50;100029.19;;;14.74;99.42
32789;BME280;19141;48.980;8.410;2023-05-12T08:55:17;100039.69;;;14.69;100.00
32789;BME280;19141;48.980;8.410;2023-05-12T08:57:43;100031.66;;;14.69;99.44
32789;BME280;19141;48.980;8.410;2023-05-12T09:00:13;100034.97;;;14.91;98.81
32789;BME280;19141;48.980;8.410;2023-05-12T09:02:39;100038.47;;;14.78;98.12
32789;BME280;19141;48.980;8.410;2023-05-12T09:05:08;100037.25;;;14.81;96.60
32789;BME280;19141;48.980;8.410;2023-05-12T09:07:35;100026.09;;;14.71;96.90
32789;BME280;19141;48.980;8.410;2023-05-12T09:10:02;100023.63;;;14.76;97.31
32789;BME280;19141;48.980;8.410;2023-05-12T09:12:30;100034.56;;;14.87;97.03
32789;BME280;19141;48.980;8.410;2023-05-12T09:15:06;100032.50;;;14.83;95.72
32789;BME280;19141;48.980;8.410;2023-05-12T09:17:33;100024.66;;;14.88;96.55
32789;BME280;19141;48.980;8.410;2023-05-12T09:19:59;100018.88;;;14.98;95.45
32789;BME280;19141;48.980;8.410;2023-05-12T09:22:29;100023.63;;;15.02;94.22
32789;BME280;19141;48.980;8.410;2023-05-12T09:24:55;100024.00;;;15.19;94.55
32789;BME280;19141;48.980;8.410;2023-05-12T09:27:27;100018.41;;;15.34;93.90
32789;BME280;19141;48.980;8.410;2023-05-12T09:29:53;100023.59;;;15.22;94.72
32789;BME280;19141;48.980;8.410;2023-05-12T09:32:32;100032.63;;;15.47;93.20
32789;BME280;19141;48.980;8.410;2023-05-12T09:35:01;100026.44;;;15.40;93.46
32789;BME280;19141;48.980;8.410;2023-05-12T09:37:32;100026.84;;;15.44;91.83
32789;BME280;19141;48.980;8.410;2023-05-12T09:40:05;100025.44;;;15.22;93.05
32789;BME280;19141;48.980;8.410;2023-05-12T09:42:32;100021.09;;;15.40;92.87
32789;BME280;19141;48.980;8.410;2023-05-12T09:45:05;100029.38;;;15.32;93.18
32789;BME280;19141;48.980;8.410;2023-05-12T09:47:38;100027.28;;;15.34;93.67
32789;BME280;19141;48.980;8.410;2023-05-12T09:50:06;100029.72;;;15.49;91.71
32789;BME280;19141;48.980;8.410;2023-05-12T09:52:37;100030.16;;;15.53;90.89
32789;BME280;19141;48.980;8.410;2023-05-12T09:55:07;100033.41;;;15.61;90.93
32789;BME280;19141;48.980;8.410;2023-05-12T09:57:38;100037.75;;;15.56;90.74
32789;BME280;19141;48.980;8.410;2023-05-12T10:00:07;100042.75;;;15.45;92.82
32789;BME280;19141;48.980;8.410;2023-05-12T10:02:33;100040.25;;;15.51;93.17
32789;BME280;19141;48.980;8.410;2023-05-12T10:05:01;100046.28;;;15.46;93.81
32789;BME280;19141;48.980;8.410;2023-05-12T10:07:31;100045.28;;;15.07;93.92
32789;BME280;19141;48.980;8.410;2023-05-12T10:09:58;100050.66;;;14.94;94.81
32789;BME280;19141;48.980;8.410;2023-05-12T10:12:25;100044.63;;;14.72;95.16
32789;BME280;19141;48.980;8.410;2023-05-12T10:14:54;100045.88;;;14.63;95.70
32789;BME280;19141;48.980;8.410;2023-05-12T10:17:21;100030.63;;;14.63;96.63
32789;BME280;19141;48.980;8.410;2023-05-12T10:19:47;100035.38;;;14.75;96.23
32789;BME280;19141;48.980;8.410;2023-05-12T10:22:14;100034.75;;;14.86;96.02
32789;BME280;19141;48.980;8.410;2023-05-12T10:24:40;100031.88;;;14.81;97.01
32789;BME280;19141;48.980;8.410;2023-05-12T10:27:06;100034.56;;;14.81;95.91
32789;BME280;19141;48.980;8.410;2023-05-12T10:29:32;100032.03;;;14.53;95.69
32789;BME280;19141;48.980;8.410;2023-05-12T10:31:58;100037.03;;;14.76;96.75
32789;BME280;19141;48.980;8.410;2023-05-12T10:34:31;100044.03;;;14.70;96.86
32789;BME280;19141;48.980;8.410;2023-05-12T10:36:57;100033.72;;;14.74;97.23
32789;BME280;19141;48.980;8.410;2023-05-12T10:39:30;100029.56;;;14.58;97.85
32789;BME280;19141;48.980;8.410;2023-05-12T10:42:16;100037.84;;;14.89;98.29
32789;BME280;19141;48.980;8.410;2023-05-12T10:44:51;100025.25;;;15.03;97.96
32789;BME280;19141;48.980;8.410;2023-05-12T10:47:17;100035.16;;;14.89;97.56
32789;BME280;19141;48.980;8.410;2023-05-12T10:49:43;100033.09;;;14.98;96.68
32789;BME280;19141;48.980;8.410;2023-05-12T10:52:18;100025.69;;;15.07;95.30
32789;BME280;19141;48.980;8.410;2023-05-12T10:54:44;100031.44;;;15.04;93.15
32789;BME280;19141;48.980;8.410;2023-05-12T10:57:13;100031.22;;;15.25;93.42
32789;BME280;19141;48.980;8.410;2023-05-12T10:59:49;100024.00;;;15.39;91.63
32789;BME280;19141;48.980;8.410;2023-05-12T11:02:21;100010.56;;;15.45;90.92
32789;BME280;19141;48.980;8.410;2023-05-12T11:04:51;100025.66;;;15.33;89.42
32789;BME280;19141;48.980;8.410;2023-05-12T11:07:30;100021.31;;;15.32;89.96
32789;BME280;19141;48.980;8.410;2023-05-12T11:09:59;100020.44;;;15.38;89.73
32789;BME280;19141;48.980;8.410;2023-05-12T11:12:26;100020.47;;;15.32;89.88
32789;BME280;19141;48.980;8.410;2023-05-12T11:14:52;100025.19;;;15.43;89.86
32789;BME280;19141;48.980;8.410;2023-05-12T11:17:17;100026.03;;;15.43;89.22
32789;BME280;19141;48.980;8.410;2023-05-12T11:19:48;100033.66;;;15.66;90.00
32789;BME280;19141;48.980;8.410;2023-05-12T11:22:16;100032.56;;;15.81;88.26
32789;BME280;19141;48.980;8.410;2023-05-12T11:24:42;100035.53;;;16.11;87.03
32789;BME280;19141;48.980;8.410;2023-05-12T11:27:13;100031.34;;;16.21;85.50
32789;BME280;19141;48.980;8.410;2023-05-12T11:29:39;100035.81;;;16.34;85.40
32789;BME280;19141;48.980;8.410;2023-05-12T11:32:07;100030.41;;;16.41;85.40
32789;BME280;19141;48.980;8.410;2023-05-12T11:34:32;100038.13;;;16.31;86.33
32789;BME280;19141;48.980;8.410;2023-05-12T11:36:58;100033.84;;;16.48;86.23
32789;BME280;19141;48.980;8.410;2023-05-12T11:39:26;100025.50;;;16.63;85.49
32789;BME280;19141;48.980;8.410;2023-05-12T11:41:52;100033.84;;;16.48;84.47
32789;BME280;19141;48.980;8.410;2023-05-12T11:44:19;100034.00;;;16.60;84.54
32789;BME280;19141;48.980;8.410;2023-05-12T11:47:01;100031.78;;;17.06;82.30
32789;BME280;19141;48.980;8.410;2023-05-12T11:49:29;100033.88;;;17.29;81.15
32789;BME280;19141;48.980;8.410;2023-05-12T11:51:57;100029.44;;;17.53;79.48
32789;BME280;19141;48.980;8.410;2023-05-12T11:54:23;100031.41;;;17.64;78.77
32789;BME280;19141;48.980;8.410;2023-05-12T11:56:53;100032.53;;;17.57;78.98
32789;BME280;19141;48.980;8.410;2023-05-12T11:59:30;100032.22;;;17.28;81.13
32789;BME280;19141;48.980;8.410;2023-05-12T12:01:57;100037.59;;;17.47;81.90
32789;BME280;19141;48.980;8.410;2023-05-12T12:04:33;100036.56;;;17.29;81.75
32789;BME280;19141;48.980;8.410;2023-05-12T12:06:59;100037.31;;;17.36;81.49
32789;BME280;19141;48.980;8.410;2023-05-12T12:09:41;100034.81;;;17.17;81.52
32789;BME280;19141;48.980;8.410;2023-05-12T12:12:08;100040.78;;;17.19;82.38
32789;BME280;19141;48.980;8.410;2023-05-12T12:14:35;100038.50;;;16.97;84.27
32789;BME280;19141;48.980;8.410;2023-05-12T12:17:02;100038.50;;;17.22;83.93
32789;BME280;19141;48.980;8.410;2023-05-12T12:19:28;100038.25;;;17.24;82.11
32789;BME280;19141;48.980;8.410;2023-05-12T12:21:55;100034.53;;;17.25;83.47
32789;BME280;19141;48.980;8.410;2023-05-12T12:24:21;100040.28;;;17.47;83.85
32789;BME280;19141;48.980;8.410;2023-05-12T12:26:46;100042.03;;;17.59;83.28
32789;BME280;19141;48.980;8.410;2023-05-12T12:29:12;100032.28;;;17.22;87.48
32789;BME280;19141;48.980;8.410;2023-05-12T12:31:37;100035.25;;;17.94;81.92
32789;BME280;19141;48.980;8.410;2023-05-12T12:34:03;100044.72;;;18.44;79.38
32789;BME280;19141;48.980;8.410;2023-05-12T12:36:29;100047.22;;;19.23;76.31
32789;BME280;19141;48.980;8.410;2023-05-12T12:38:54;100043.34;;;19.54;70.09
32789;BME280;19141;48.980;8.410;2023-05-12T12:41:20;100042.09;;;20.09;65.23
32789;BME280;19141;48.980;8.410;2023-05-12T12:43:46;100043.69;;;19.81;68.57
32789;BME280;19141;48.980;8.410;2023-05-12T12:46:16;100043.69;;;19.81;63.41
32789;BME280;19141;48.980;8.410;2023-05-12T12:48:43;100039.84;;;19.30;65.75
32789;BME280;19141;48.980;8.410;2023-05-12T12:51:08;100032.44;;;19.02;66.70
32789;BME280;19141;48.980;8.410;2023-05-12T12:53:34;100041.25;;;19.33;66.57
32789;BME280;19141;48.980;8.410;2023-05-12T12:56:00;100042.88;;;19.22;66.28
32789;BME280;19141;48.980;8.410;2023-05-12T12:58:26;100041.00;;;19.22;66.89
32789;BME280;19141;48.980;8.410;2023-05-12T13:00:51;100030.31;;;19.28;67.11
32789;BME280;19141;48.980;8.410;2023-05-12T13:03:17;100039.00;;;18.94;70.39
32789;BME280;19141;48.980;8.410;2023-05-12T13:05:42;100038.16;;;18.40;70.90
32789;BME280;19141;48.980;8.410;2023-05-12T13:08:08;100041.72;;;18.64;71.67
32789;BME280;19141;48.980;8.410;2023-05-12T13:10:34;100034.66;;;18.82;66.84
32789;BME280;19141;48.980;8.410;2023-05-12T13:12:59;100041.34;;;18.49;70.48
32789;BME280;19141;48.980;8.410;2023-05-12T13:15:25;100029.47;;;18.08;72.34
32789;BME280;19141;48.980;8.410;2023-05-12T13:17:50;100038.06;;;17.99;74.05
32789;BME280;19141;48.980;8.410;2023-05-12T13:20:16;100033.44;;;17.69;77.36
32789;BME280;19141;48.980;8.410;2023-05-12T13:22:42;100038.31;;;17.79;78.58
32789;BME280;19141;48.980;8.410;2023-05-12T13:25:08;100051.59;;;17.80;80.14
32789;BME280;19141;48.980;8.410;2023-05-12T13:27:36;100054.25;;;17.62;84.93
32789;BME280;19141;48.980;8.410;2023-05-12T13:30:03;100051.38;;;17.57;85.85
32789;BME280;19141;48.980;8.410;2023-05-12T13:32:33;100055.28;;;17.18;86.75
32789;BME280;19141;48.980;8.410;2023-05-12T13:34:59;100053.31;;;17.06;89.82
32789;BME280;19141;48.980;8.410;2023-05-12T13:37:25;100044.81;;;17.09;90.93
32789;BME280;19141;48.980;8.410;2023-05-12T13:39:51;100051.50;;;17.00;91.98
32789;BME280;19141;48.980;8.410;2023-05-12T13:42:16;100053.47;;;17.12;94.49
32789;BME280;19141;48.980;8.410;2023-05-12T13:44:42;100057.44;;;17.09;93.79
32789;BME280;19141;48.980;8.410;2023-05-12T13:47:07;100048.03;;;16.93;94.33
32789;BME280;19141;48.980;8.410;2023-05-12T13:49:36;100040.13;;;17.23;92.09
32789;BME280;19141;48.980;8.410;2023-05-12T13:52:02;100047.13;;;17.06;95.12
32789;BME280;19141;48.980;8.410;2023-05-12T13:54:27;100045.91;;;17.02;91.41
32789;BME280;19141;48.980;8.410;2023-05-12T13:56:53;100040.66;;;17.32;92.38
32789;BME280;19141;48.980;8.410;2023-05-12T13:59:19;100033.97;;;17.41;90.20
32789;BME280;19141;48.980;8.410;2023-05-12T14:01:44;100033.28;;;17.64;90.41
32789;BME280;19141;48.980;8.410;2023-05-12T14:04:10;100028.09;;;17.26;90.37
32789;BME280;19141;48.980;8.410;2023-05-12T14:06:36;100024.81;;;16.99;91.04
32789;BME280;19141;48.980;8.410;2023-05-12T14:09:01;100029.81;;;17.39;90.63
32789;BME280;19141;48.980;8.410;2023-05-12T14:11:29;100041.41;;;17.39;88.42
32789;BME280;19141;48.980;8.410;2023-05-12T14:13:55;100044.09;;;17.39;86.02
32789;BME280;19141;48.980;8.410;2023-05-12T14:16:20;100037.44;;;17.23;86.85
32789;BME280;19141;48.980;8.410;2023-05-12T14:18:45;100042.78;;;17.05;90.51
32789;BME280;19141;48.980;8.410;2023-05-12T14:21:11;100038.72;;;16.64;91.12
32789;BME280;19141;48.980;8.410;2023-05-12T14:23:36;100044.16;;;16.89;89.69
32789;BME280;19141;48.980;8.410;2023-05-12T14:26:02;100042.56;;;16.50;91.59
32789;BME280;19141;48.980;8.410;2023-05-12T14:28:28;100048.72;;;16.57;90.34
32789;BME280;19141;48.980;8.410;2023-05-12T14:30:53;100047.75;;;16.45;89.17
32789;BME280;19141;48.980;8.410;2023-05-12T14:33:19;100047.44;;;16.60;88.12
32789;BME280;19141;48.980;8.410;2023-05-12T14:35:44;100041.41;;;16.64;88.45
32789;BME280;19141;48.980;8.410;2023-05-12T14:38:10;100052.41;;;16.63;88.57
32789;BME280;19141;48.980;8.410;2023-05-12T14:40:35;100055.22;;;16.68;88.60
32789;BME280;19141;48.980;8.410;2023-05-12T14:43:01;100056.63;;;16.45;88.73
32789;BME280;19141;48.980;8.410;2023-05-12T14:45:27;100056.63;;;16.45;90.50
32789;BME280;19141;48.980;8.410;2023-05-12T14:47:55;100056.50;;;16.34;87.54
32789;BME280;19141;48.980;8.410;2023-05-12T14:50:20;100050.81;;;16.48;85.56
32789;BME280;19141;48.980;8.410;2023-05-12T14:52:46;100060.00;;;16.34;86.07
32789;BME280;19141;48.980;8.410;2023-05-12T14:55:12;100057.47;;;16.46;85.25
32789;BME280;19141;48.980;8.410;2023-05-12T14:57:40;100057.91;;;16.36;85.45
32789;BME280;19141;48.980;8.410;2023-05-12T15:00:07;100060.53;;;16.49;82.78
32789;BME280;19141;48.980;8.410;2023-05-12T15:02:33;100054.22;;;16.37;82.04
32789;BME280;19141;48.980;8.410;2023-05-12T15:04:59;100061.63;;;16.35;80.57
32789;BME280;19141;48.980;8.410;2023-05-12T15:07:25;100062.75;;;16.59;79.11
32789;BME280;19141;48.980;8.410;2023-05-12T15:09:50;100055.91;;;16.70;77.61
32789;BME280;19141;48.980;8.410;2023-05-12T15:12:15;100057.09;;;16.74;79.05
32789;BME280;19141;48.980;8.410;2023-05-12T15:14:41;100061.28;;;16.63;79.75
32789;BME280;19141;48.980;8.410;2023-05-12T15:17:07;100049.84;;;16.68;79.63
32789;BME280;19141;48.980;8.410;2023-05-12T15:19:32;100063.75;;;16.65;81.22
32789;BME280;19141;48.980;8.410;2023-05-12T15:21:58;100055.84;;;16.76;80.26
32789;BME280;19141;48.980;8.410;2023-05-12T15:24:24;100052.81;;;16.91;78.53
32789;BME280;19141;48.980;8.410;2023-05-12T15:26:49;100058.56;;;16.95;79.01
32789;BME280;19141;48.980;8.410;2023-05-12T15:29:15;100063.16;;;16.56;79.21
32789;BME280;19141;48.980;8.410;2023-05-12T15:31:40;100060.22;;;16.71;79.62
32789;BME280;19141;48.980;8.410;2023-05-12T15:34:06;100058.84;;;16.87;80.02
32789;BME280;19141;48.980;8.410;2023-05-12T15:36:31;100058.97;;;16.73;81.12
32789;BME280;19141;48.980;8.410;2023-05-12T15:38:56;100058.25;;;16.85;79.49
32789;BME280;19141;48.980;8.410;2023-05-12T15:41:22;100060.56;;;16.81;79.00
32789;BME280;19141;48.980;8.410;2023-05-12T15:43:47;100061.06;;;16.96;79.12
32789;BME280;19141;48.980;8.410;2023-05-12T15:46:13;100062.50;;;16.99;79.34
32789;BME280;19141;48.980;8.410;2023-05-12T15:48:38;100064.16;;;16.62;82.04
32789;BME280;19141;48.980;8.410;2023-05-12T15:51:04;100059.78;;;16.74;81.29
32789;BME280;19141;48.980;8.410;2023-05-12T15:53:30;100067.44;;;16.39;82.79
32789;BME280;19141;48.980;8.410;2023-05-12T15:56:02;100070.13;;;16.39;84.02
32789;BME280;19141;48.980;8.410;2023-05-12T15:58:28;100069.88;;;16.40;83.17
32789;BME280;19141;48.980;8.410;2023-05-12T16:00:53;100064.28;;;16.42;83.58
32789;BME280;19141;48.980;8.410;2023-05-12T16:03:19;100071.47;;;16.54;83.92
32789;BME280;19141;48.980;8.410;2023-05-12T16:05:44;100073.31;;;16.54;84.59
32789;BME280;19141;48.980;8.410;2023-05-12T16:08:10;100070.53;;;16.67;83.65
32789;BME280;19141;48.980;8.410;2023-05-12T16:10:36;100074.50;;;16.65;84.01
32789;BME280;19141;48.980;8.410;2023-05-12T16:13:01;100072.41;;;16.67;83.84
32789;BME280;19141;48.980;8.410;2023-05-12T16:15:26;100058.72;;;16.75;83.51
32789;BME280;19141;48.980;8.410;2023-05-12T16:17:52;100062.25;;;16.75;84.03
32789;BME280;19141;48.980;8.410;2023-05-12T16:20:17;100063.97;;;16.63;84.67
32789;BME280;19141;48.980;8.410;2023-05-12T16:22:43;100051.63;;;16.49;84.91
32789;BME280;19141;48.980;8.410;2023-05-12T16:25:08;100064.25;;;16.48;85.44
32789;BME280;19141;48.980;8.410;2023-05-12T16:27:34;100063.91;;;16.38;86.11
32789;BME280;19141;48.980;8.410;2023-05-12T16:30:01;100064.03;;;16.57;85.24
32789;BME280;19141;48.980;8.410;2023-05-12T16:32:26;100059.31;;;16.45;86.38
32789;BME280;19141;48.980;8.410;2023-05-12T16:34:52;100058.69;;;16.50;85.80
32789;BME280;19141;48.980;8.410;2023-05-12T16:37:17;100066.09;;;16.54;84.72
32789;BME280;19141;48.980;8.410;2023-05-12T16:39:43;100057.53;;;16.33;83.60
32789;BME280;19141;48.980;8.410;2023-05-12T16:42:08;100057.91;;;16.36;82.63
32789;BME280;19141;48.980;8.410;2023-05-12T16:44:33;100056.13;;;16.23;80.91
32789;BME280;19141;48.980;8.410;2023-05-12T16:46:59;100057.78;;;16.24;82.84
32789;BME280;19141;48.980;8.410;2023-05-12T16:49:24;100054.94;;;16.13;82.75
32789;BME280;19141;48.980;8.410;2023-05-12T16:51:50;100056.00;;;16.12;83.86
32789;BME280;19141;48.980;8.410;2023-05-12T16:54:15;100056.13;;;16.30;82.71
32789;BME280;19141;48.980;8.410;2023-05-12T16:56:42;100067.09;;;16.22;82.56
32789;BME280;19141;48.980;8.410;2023-05-12T16:59:07;100071.03;;;16.19;83.20
32789;BME280;19141;48.980;8.410;2023-05-12T17:01:33;100064.66;;;16.14;82.09
32789;BME280;19141;48.980;8.410;2023-05-12T17:04:00;100068.41;;;16.06;81.93
32789;BME280;19141;48.980;8.410;2023-05-12T17:06:25;100069.41;;;16.18;81.42